• Join FlightAware (Why Join?)
  • Login
  • US Flag 
06:19PM EDT


 

Airport Tracker/Info


-or-


 

Live Flight TrackerFlight Track Log ✈ SWA3937 ✈ 14-Apr-2013 ✈ KONT - KPHX

Flight Track Log - Related Links

Times and Time Zones

All times are in EDT time to prevent confusion due to time zone crossing. See the SWA3937 flight status page for this flight to view local times or setup timezone preferences in your user account.

Time Position Orientation Groundspeed Altitude Reporting Facility
EDT Latitude Longitude Course Direction KTS MPH feet Rate Location/Type
12:40PM 34.0500 -117.6333 151° Southeast 168 193 2,400  Level Southern California TRACON
12:41PM 34.0000 -117.6000 151° Southeast 219 252 4,300 1,380 Climbing Southern California TRACON
12:43PM 33.8622 -117.4822 145° Southeast 292 336 7,000 780 Climbing Los Angeles Center
12:44PM 33.7956 -117.4264 145° Southeast 294 338 7,000 1,740 Level Los Angeles Center
12:45PM 33.7289 -117.3378 132° Southeast 317 365 10,700 2,340 Climbing Los Angeles Center
12:46PM 33.7189 -117.2233 96° East 346 398 11,800 1,560 Climbing Los Angeles Center
12:47PM 33.7083 -117.1025 96° East 361 415 14,000 1,980 Climbing Los Angeles Center
12:48PM 33.6994 -116.9803 95° East 367 422 16,000 2,580 Climbing Los Angeles Center
12:49PM 33.6864 -116.8397 96° East 383 441 19,400 3,120 Climbing Los Angeles Center
12:50PM 33.6753 -116.7022 96° East 408 470 22,500 3,180 Climbing Los Angeles Center
12:51PM 33.6625 -116.5631 96° East 418 481 26,100 2,880 Climbing Los Angeles Center
12:52PM 33.6514 -116.4283 96° East 409 471 28,500 1,380 Climbing Los Angeles Center
12:53PM 33.6392 -116.2864 96° East 421 484 29,000 240 Climbing Los Angeles Center
12:54PM 33.6261 -116.1456 96° East 425 489 29,000 240 Level Los Angeles Center
12:55PM 33.6239 -115.9775 91° East 418 481 29,500 480 Climbing Los Angeles Center
12:56PM 33.6211 -115.8358 91° East 423 487 30,000 240 Climbing Los Angeles Center
12:57PM 33.6172 -115.6903 92° East 434 499 30,000  Level Los Angeles Center
12:58PM 33.6142 -115.5453 91° East 434 499 30,000  Level Los Angeles Center
12:59PM 33.6106 -115.3994 92° East 436 502 30,000  Level Los Angeles Center
01:00PM 33.6067 -115.2383 92° East 479 551 30,000  Level Los Angeles Center
01:01PM 33.6019 -115.0478 92° East 479 551 30,000  Level Los Angeles Center
01:03PM 33.5853 -114.8886 97° East 482 555 30,000  Level Los Angeles Center
01:04PM 33.5606 -114.7317 101° East 481 554 30,000  Level Los Angeles Center
01:05PM 33.5364 -114.5733 100° East 483 556 30,000  Level Los Angeles Center
01:05PM 33.5331 -114.5258 95° East 482 555 30,000 -480 Level Albuquerque Center
01:06PM 33.5106 -114.3697 100° East 478 550 29,400 -1,680 Descending Albuquerque Center
01:07PM 33.4792 -114.1892 102° East 466 536 26,600 -2,160 Descending Albuquerque Center
01:08PM 33.4567 -114.0425 100° East 452 520 25,000 -780 Descending Albuquerque Center
01:09PM 33.4272 -113.9006 104° East 443 510 25,000  Level Albuquerque Center
01:10PM 33.3981 -113.7581 104° East 441 507 25,000 -660 Level Albuquerque Center
01:11PM 33.3697 -113.6164 103° East 439 505 23,700 -1,740 Descending Albuquerque Center
01:12PM 33.3414 -113.4783 104° East 433 498 21,500 -2,340 Descending Albuquerque Center
01:13PM 33.3086 -113.3211 104° East 419 482 18,900 -2,460 Descending Albuquerque Center
01:14PM 33.2825 -113.1936 104° East 408 470 16,500 -1,980 Descending Albuquerque Center
01:15PM 33.2733 -113.0683 95° East 395 455 14,900 -1,560 Descending Albuquerque Center
01:16PM 33.2781 -112.9472 87° East 369 425 13,300 -1,560 Descending Albuquerque Center
01:17PM 33.2794 -112.8333 89° East 350 403 11,700 -1,500 Descending Albuquerque Center
01:18PM 33.3128 -112.7331 68° East 332 382 10,200 -900 Descending Albuquerque Center
01:19PM 33.3458 -112.6414 67° East 309 356 9,900 -780 Descending Albuquerque Center
01:20PM 33.3822 -112.5494 65° Northeast 267 307 8,700 -1,140 Descending Albuquerque Center
01:21PM 33.4125 -112.4694 66° East 264 304 7,600 -1,020 Descending Albuquerque Center
01:23PM 33.4408 -112.3919 66° East 256 295 6,600 -1,020 Descending Albuquerque Center
01:24PM 33.4403 -112.3133 90° East 237 273 5,600 -1,080 Descending Albuquerque Center
01:25PM 33.4406 -112.2397 90° East 224 258 4,400 -1,200 Descending Albuquerque Center
01:26PM 33.4406 -112.1572 90° East 207 238 3,200 -1,020 Descending Albuquerque Center
01:27PM 33.4406 -112.1022 90° East 171 197 2,300 -780 Descending Albuquerque Center
01:28PM 33.4411 -112.0556 89° East 147 169 1,600 -600 Descending Albuquerque Center
01:29PM 33.4425 -112.0081 88° East 134 154 1,100 -540 Descending Albuquerque Center
01:31PM 33.4333 -112.0000 North  Level FlightAware Approximate